createdAt,value
2019-04-26T00:00:51.777Z,37.90
2019-04-26T00:03:36.079Z,37.90
2019-04-26T00:06:12.566Z,38.00
2019-04-26T00:08:52.617Z,37.80
2019-04-26T00:11:39.275Z,37.80
2019-04-26T00:14:34.789Z,38.40
2019-04-26T00:17:20.127Z,38.00
2019-04-26T00:19:55.681Z,38.10
2019-04-26T00:22:31.159Z,38.00
2019-04-26T00:25:06.622Z,38.60
2019-04-26T00:27:41.845Z,38.10
2019-04-26T00:30:17.166Z,38.20
2019-04-26T00:32:52.366Z,38.30
2019-04-26T00:35:27.787Z,38.20
2019-04-26T00:38:02.933Z,38.40
2019-04-26T00:40:38.433Z,38.60
2019-04-26T00:43:14.312Z,38.50
2019-04-26T00:45:52.556Z,38.60
2019-04-26T00:48:29.481Z,38.70
2019-04-26T00:51:06.742Z,38.80
2019-04-26T00:53:43.758Z,38.80
2019-04-26T00:56:20.158Z,38.90
2019-04-26T00:58:55.848Z,38.90
2019-04-26T01:01:34.006Z,39.00
2019-04-26T01:04:09.292Z,38.90
2019-04-26T01:06:46.001Z,39.00
2019-04-26T01:09:21.550Z,38.90
2019-04-26T01:11:57.162Z,38.90
2019-04-26T01:14:32.452Z,39.10
2019-04-26T01:17:07.690Z,39.10
2019-04-26T01:19:44.153Z,39.10
2019-04-26T01:22:24.138Z,39.20
2019-04-26T01:25:02.618Z,39.30
2019-04-26T01:27:38.958Z,39.50
2019-04-26T01:30:14.339Z,39.70
2019-04-26T01:32:50.001Z,39.70
2019-04-26T01:38:19.243Z,39.80
2019-04-26T01:40:58.048Z,39.90
2019-04-26T01:43:59.532Z,39.80
2019-04-26T01:46:41.032Z,39.80
2019-04-26T01:49:19.741Z,39.90
2019-04-26T01:52:06.229Z,39.90
2019-04-26T01:54:43.787Z,40.10
2019-04-26T01:57:20.970Z,40.00
2019-04-26T02:00:02.756Z,40.00
2019-04-26T02:02:50.950Z,39.90
2019-04-26T02:05:27.910Z,40.20
2019-04-26T02:08:03.290Z,40.30
2019-04-26T02:10:38.629Z,40.20
2019-04-26T02:13:13.868Z,40.30
2019-04-26T02:15:49.020Z,40.30
2019-04-26T02:18:25.429Z,40.50
2019-04-26T02:21:26.603Z,40.50
2019-04-26T02:24:10.695Z,40.60
2019-04-26T02:26:46.755Z,40.60
2019-04-26T02:29:26.786Z,40.70
2019-04-26T02:32:06.699Z,40.60
2019-04-26T02:34:41.905Z,40.60
2019-04-26T02:37:17.627Z,40.60
2019-04-26T02:39:54.939Z,40.60
2019-04-26T02:42:40.607Z,40.80
2019-04-26T02:46:20.268Z,40.80
2019-04-26T02:49:23.058Z,40.80
2019-04-26T02:52:36.031Z,40.50
2019-04-26T02:55:20.879Z,40.70
2019-04-26T02:57:56.086Z,40.60
2019-04-26T03:00:32.178Z,40.70
2019-04-26T03:03:09.769Z,40.70
2019-04-26T03:05:45.988Z,40.90
2019-04-26T03:08:24.127Z,41.00
2019-04-26T03:11:26.086Z,41.00
2019-04-26T03:14:22.534Z,41.00
2019-04-26T03:17:22.418Z,41.20
2019-04-26T03:20:02.495Z,41.40
2019-04-26T03:23:02.494Z,41.40
2019-04-26T03:26:03.390Z,41.30
2019-04-26T03:28:50.966Z,41.30
2019-04-26T03:31:54.546Z,41.40
2019-04-26T03:34:53.158Z,41.30
2019-04-26T03:38:07.811Z,41.40
2019-04-26T03:40:56.575Z,41.40
2019-04-26T03:43:49.360Z,41.40
2019-04-26T03:46:47.881Z,41.80
2019-04-26T03:49:48.607Z,41.70
2019-04-26T03:53:04.882Z,41.60
2019-04-26T03:56:08.765Z,41.70
2019-04-26T03:59:10.648Z,42.10
2019-04-26T04:01:56.765Z,42.10
2019-04-26T04:04:42.784Z,42.10
2019-04-26T04:07:36.006Z,42.30
2019-04-26T04:10:20.983Z,42.40
2019-04-26T04:13:38.843Z,42.60
2019-04-26T04:17:00.055Z,42.70
2019-04-26T04:20:31.268Z,42.70
2019-04-26T04:23:27.891Z,42.70
2019-04-26T04:26:06.569Z,42.60
2019-04-26T04:29:03.391Z,42.70
2019-04-26T04:31:44.329Z,42.90
2019-04-26T04:34:33.259Z,42.90
2019-04-26T04:37:11.946Z,43.00
2019-04-26T04:40:09.649Z,43.20
2019-04-26T04:43:19.133Z,43.20
2019-04-26T04:46:33.323Z,43.10
2019-04-26T04:49:20.670Z,43.30
2019-04-26T04:52:18.206Z,43.10
2019-04-26T04:55:07.713Z,43.10
2019-04-26T04:58:04.911Z,43.00
2019-04-26T05:01:32.220Z,43.20
2019-04-26T05:04:20.560Z,43.20
2019-04-26T05:07:24.544Z,43.10
2019-04-26T05:10:17.008Z,43.20
2019-04-26T05:13:18.752Z,43.30
2019-04-26T05:16:50.520Z,43.20
2019-04-26T05:20:00.110Z,43.90
2019-04-26T05:23:05.570Z,43.40
2019-04-26T05:26:49.901Z,43.30
2019-04-26T05:29:56.158Z,43.20
2019-04-26T05:33:11.668Z,43.10
2019-04-26T05:36:17.384Z,43.00
2019-04-26T05:39:10.953Z,43.00
2019-04-26T05:42:53.888Z,43.00
2019-04-26T05:46:08.302Z,43.00
2019-04-26T05:49:07.237Z,43.10
2019-04-26T05:52:41.529Z,43.20
2019-04-26T05:55:41.532Z,43.10
2019-04-26T05:58:47.341Z,43.00
2019-04-26T06:02:25.548Z,43.00
2019-04-26T06:05:22.680Z,43.10
2019-04-26T06:08:31.559Z,43.00
2019-04-26T06:11:15.313Z,43.10
2019-04-26T06:14:47.785Z,43.10
2019-04-26T06:18:02.841Z,43.20
2019-04-26T06:20:46.877Z,43.20
2019-04-26T06:23:53.838Z,43.10
2019-04-26T06:26:45.160Z,43.20
2019-04-26T06:29:33.211Z,43.20
2019-04-26T06:32:23.236Z,43.10
2019-04-26T06:35:16.683Z,43.10
2019-04-26T06:39:05.651Z,43.00
2019-04-26T06:42:14.239Z,43.10
2019-04-26T06:45:52.158Z,43.60
2019-04-26T06:49:09.791Z,43.00
2019-04-26T06:51:50.939Z,43.00
2019-04-26T06:54:33.490Z,43.00
2019-04-26T06:58:16.310Z,43.00
2019-04-26T07:01:17.737Z,43.40
2019-04-26T07:04:26.495Z,43.00
2019-04-26T07:07:28.428Z,43.10
2019-04-26T07:10:14.424Z,43.10
2019-04-26T07:13:25.011Z,43.10
2019-04-26T07:16:23.436Z,43.10
2019-04-26T07:19:23.690Z,43.10
2019-04-26T07:22:37.372Z,42.80
2019-04-26T07:25:46.441Z,42.80
2019-04-26T07:28:56.969Z,42.70
2019-04-26T07:31:47.713Z,42.50
2019-04-26T07:34:40.760Z,42.30
2019-04-26T07:38:09.560Z,42.20
2019-04-26T07:41:38.599Z,42.10
2019-04-26T07:45:03.693Z,42.10
2019-04-26T07:48:19.759Z,42.20
2019-04-26T07:51:26.513Z,42.10
2019-04-26T07:54:34.306Z,42.20
2019-04-26T07:57:45.057Z,42.20
2019-04-26T08:00:44.758Z,42.20
2019-04-26T08:03:34.121Z,42.10
2019-04-26T08:06:34.797Z,41.90
2019-04-26T08:09:25.927Z,41.90
2019-04-26T08:11:55.154Z,41.80
2019-04-26T08:14:35.969Z,42.00
2019-04-26T08:17:27.285Z,41.90
2019-04-26T08:20:48.358Z,41.70
2019-04-26T08:23:41.122Z,41.90
2019-04-26T08:26:11.804Z,41.60
2019-04-26T08:28:50.248Z,41.50
2019-04-26T08:31:27.614Z,41.50
2019-04-26T08:34:08.676Z,41.80
2019-04-26T08:36:57.247Z,41.70
2019-04-26T08:39:44.793Z,41.50
2019-04-26T08:42:20.814Z,41.70
2019-04-26T08:44:58.236Z,41.50
2019-04-26T08:47:51.209Z,41.10
2019-04-26T08:50:32.051Z,41.30
2019-04-26T08:53:09.639Z,41.00
2019-04-26T08:55:47.204Z,40.40
2019-04-26T08:58:25.435Z,40.20
2019-04-26T09:01:13.181Z,40.70
2019-04-26T09:03:55.459Z,40.80
2019-04-26T09:06:43.021Z,40.50
2019-04-26T09:09:23.264Z,40.50
2019-04-26T09:12:03.918Z,40.40
2019-04-26T09:14:40.594Z,40.20
2019-04-26T09:17:16.047Z,40.20
2019-04-26T09:19:51.293Z,40.40
2019-04-26T09:23:03.949Z,39.70
2019-04-26T09:25:40.725Z,39.60
2019-04-26T09:28:33.404Z,39.50
2019-04-26T09:31:35.978Z,39.30
2019-04-26T09:34:12.969Z,39.50
2019-04-26T09:36:48.355Z,39.90
2019-04-26T09:39:24.047Z,39.80
2019-04-26T09:42:06.028Z,39.80
2019-04-26T09:44:56.825Z,39.70
2019-04-26T09:47:39.548Z,40.20
2019-04-26T09:50:26.881Z,39.00
2019-04-26T09:53:02.022Z,39.10
2019-04-26T09:55:37.276Z,38.50
2019-04-26T09:58:12.569Z,38.70
2019-04-26T10:00:48.689Z,38.10
2019-04-26T10:03:24.587Z,37.70
2019-04-26T10:05:59.734Z,38.10
2019-04-26T10:08:34.865Z,37.50
2019-04-26T10:11:11.810Z,36.50
2019-04-26T10:13:52.595Z,36.50
2019-04-26T10:16:49.848Z,35.70
2019-04-26T10:19:42.537Z,35.50
2019-04-26T10:22:17.881Z,35.20
2019-04-26T10:24:53.040Z,35.00
2019-04-26T10:27:28.260Z,35.50
2019-04-26T10:30:08.926Z,34.90
2019-04-26T10:32:40.425Z,35.60
2019-04-26T10:35:17.556Z,35.80
2019-04-26T10:37:52.760Z,35.30
2019-04-26T10:40:35.408Z,35.50
2019-04-26T10:43:05.900Z,35.10
2019-04-26T10:45:41.255Z,34.70
2019-04-26T10:48:17.536Z,34.70
2019-04-26T10:50:52.917Z,35.30
2019-04-26T10:53:52.201Z,34.80
2019-04-26T10:56:40.715Z,34.80
2019-04-26T10:59:23.816Z,34.60
2019-04-26T11:01:59.061Z,34.50
2019-04-26T11:04:37.384Z,34.90
2019-04-26T11:07:11.207Z,35.20
2019-04-26T11:09:46.447Z,35.20
2019-04-26T11:12:21.936Z,34.80
2019-04-26T11:14:58.205Z,34.30
2019-04-26T11:17:33.441Z,34.60
2019-04-26T11:20:10.558Z,33.90
2019-04-26T11:22:46.121Z,34.50
2019-04-26T11:25:24.736Z,34.10
2019-04-26T11:27:58.749Z,34.10
2019-04-26T11:30:33.973Z,34.40
2019-04-26T11:33:11.066Z,34.60
2019-04-26T11:35:46.059Z,34.60
2019-04-26T11:38:22.004Z,34.00
2019-04-26T11:41:05.771Z,34.70
2019-04-26T11:43:34.132Z,34.50
2019-04-26T11:46:09.209Z,34.40
2019-04-26T11:48:44.531Z,34.30
2019-04-26T11:51:19.770Z,34.40
2019-04-26T11:53:56.635Z,34.40
2019-04-26T11:56:33.973Z,34.00
2019-04-26T11:59:08.815Z,34.10
2019-04-26T12:01:44.054Z,34.20
2019-04-26T12:04:35.357Z,34.30
2019-04-26T12:07:31.597Z,34.20
2019-04-26T12:10:09.903Z,34.30
2019-04-26T12:12:47.124Z,34.60
2019-04-26T12:15:30.165Z,34.70
2019-04-26T12:17:59.095Z,34.60
2019-04-26T12:20:34.354Z,34.20
2019-04-26T12:23:13.668Z,34.10
2019-04-26T12:25:48.220Z,34.40
2019-04-26T12:28:23.325Z,34.50
2019-04-26T12:31:00.757Z,34.50
2019-04-26T12:33:39.181Z,34.40
2019-04-26T12:36:14.319Z,34.80
2019-04-26T12:38:49.721Z,35.00
2019-04-26T12:41:39.463Z,34.80
2019-04-26T12:44:03.315Z,34.90
2019-04-26T12:46:50.754Z,34.50
2019-04-26T12:49:26.359Z,34.10
2019-04-26T12:52:01.580Z,34.00
2019-04-26T12:54:39.018Z,34.00
2019-04-26T12:57:16.205Z,34.40
2019-04-26T12:59:50.678Z,33.70
2019-04-26T13:02:25.872Z,34.40
2019-04-26T13:05:01.112Z,34.40
2019-04-26T13:07:39.040Z,33.50
2019-04-26T13:10:50.285Z,34.20
2019-04-26T13:13:33.432Z,34.20
2019-04-26T13:16:12.485Z,33.60
2019-04-26T13:18:50.419Z,33.30
2019-04-26T13:21:25.578Z,33.70
2019-04-26T13:24:04.461Z,33.80
2019-04-26T13:26:37.757Z,32.80
2019-04-26T13:29:12.997Z,33.60
2019-04-26T13:31:48.150Z,33.60
2019-04-26T13:34:23.425Z,32.80
2019-04-26T13:36:59.273Z,32.60
2019-04-26T13:39:34.412Z,32.70
2019-04-26T13:42:09.898Z,33.10
2019-04-26T13:45:11.334Z,32.70
2019-04-26T13:48:11.282Z,32.60
2019-04-26T13:50:57.275Z,32.80
2019-04-26T13:53:30.687Z,32.00
2019-04-26T13:56:05.841Z,31.60
2019-04-26T13:58:41.062Z,31.60
2019-04-26T14:01:18.639Z,31.70
2019-04-26T14:03:53.073Z,31.90
2019-04-26T14:06:28.220Z,31.90
2019-04-26T14:09:03.633Z,32.00
2019-04-26T14:11:39.086Z,32.10
2019-04-26T14:14:14.301Z,32.00
2019-04-26T14:16:52.073Z,32.40
2019-04-26T14:19:26.660Z,32.40
2019-04-26T14:22:03.124Z,32.10
2019-04-26T14:24:44.295Z,32.40
2019-04-26T14:27:22.464Z,32.30
2019-04-26T14:29:57.621Z,32.70
2019-04-26T14:32:32.840Z,32.90
2019-04-26T14:35:11.533Z,33.70
2019-04-26T14:37:45.440Z,33.30
2019-04-26T14:40:22.229Z,33.60
2019-04-26T14:43:06.586Z,33.70
2019-04-26T14:45:36.427Z,33.90
2019-04-26T14:48:25.206Z,34.00
2019-04-26T14:50:48.470Z,34.10
2019-04-26T14:53:23.761Z,34.30
2019-04-26T14:55:59.073Z,34.10
2019-04-26T14:58:34.323Z,34.20
2019-04-26T15:01:13.164Z,34.30
2019-04-26T15:04:10.348Z,34.60
2019-04-26T15:06:46.104Z,34.70
2019-04-26T15:09:29.874Z,34.60
2019-04-26T15:12:01.228Z,34.90
2019-04-26T15:14:35.453Z,35.00
2019-04-26T15:17:12.276Z,35.30
2019-04-26T15:19:47.616Z,35.50
2019-04-26T15:22:24.353Z,36.40
2019-04-26T15:24:59.673Z,36.20
2019-04-26T15:27:36.189Z,36.50
2019-04-26T15:30:13.360Z,36.50
2019-04-26T15:32:48.570Z,36.70
2019-04-26T15:35:23.828Z,36.80
2019-04-26T15:38:01.409Z,37.00
2019-04-26T15:40:54.023Z,37.20
2019-04-26T15:43:37.656Z,37.30
2019-04-26T15:46:21.358Z,37.60
2019-04-26T15:49:15.541Z,37.60
2019-04-26T15:51:50.769Z,37.90
2019-04-26T15:54:25.959Z,38.00
2019-04-26T15:57:02.120Z,38.20
2019-04-26T15:59:37.684Z,38.30
2019-04-26T16:02:13.206Z,38.10
2019-04-26T16:04:51.337Z,38.30
2019-04-26T16:07:28.800Z,38.50
2019-04-26T16:10:02.337Z,38.90
2019-04-26T16:12:37.490Z,39.60
2019-04-26T16:15:14.701Z,38.80
2019-04-26T16:17:49.896Z,39.00
2019-04-26T16:20:25.116Z,39.00
2019-04-26T16:23:03.942Z,39.20
2019-04-26T16:25:38.289Z,39.40
2019-04-26T16:28:33.293Z,39.20
2019-04-26T16:31:16.871Z,39.50
2019-04-26T16:33:55.198Z,39.40
2019-04-26T16:36:30.704Z,40.10
2019-04-26T16:39:09.348Z,39.70
2019-04-26T16:41:44.505Z,39.70
2019-04-26T16:44:29.370Z,39.90
2019-04-26T16:47:01.420Z,39.90
2019-04-26T16:49:35.234Z,40.00
2019-04-26T16:52:10.799Z,40.00
2019-04-26T16:54:46.010Z,39.90
2019-04-26T16:57:24.134Z,40.10
2019-04-26T17:00:00.276Z,40.10
2019-04-26T17:02:36.927Z,40.20
2019-04-26T17:05:21.159Z,40.30
2019-04-26T17:07:48.701Z,40.40
2019-04-26T17:10:24.791Z,40.60
2019-04-26T17:13:00.148Z,40.80
2019-04-26T17:15:35.738Z,41.00
2019-04-26T17:18:12.394Z,41.20
2019-04-26T17:20:48.347Z,41.30
2019-04-26T17:23:45.300Z,41.40
2019-04-26T17:26:29.234Z,41.40
2019-04-26T17:29:05.148Z,41.40
2019-04-26T17:31:40.377Z,41.30
2019-04-26T17:34:15.756Z,41.50
2019-04-26T17:36:52.222Z,41.40
2019-04-26T17:39:27.453Z,41.50
2019-04-26T17:42:02.690Z,41.50
2019-04-26T17:44:38.290Z,41.40
2019-04-26T17:47:13.613Z,41.40
2019-04-26T18:59:18.002Z,41.50
2019-04-26T19:01:54.025Z,41.60
2019-04-26T19:04:29.581Z,41.70
2019-04-26T19:07:04.909Z,41.80
2019-04-26T19:09:56.810Z,41.90
2019-04-26T19:12:18.464Z,42.00
2019-04-26T19:15:25.637Z,42.00
2019-04-26T19:18:19.692Z,42.00
2019-04-26T19:21:16.625Z,42.00
2019-04-26T19:23:51.971Z,42.00
2019-04-26T19:26:33.092Z,42.20
2019-04-26T19:29:15.522Z,42.20
2019-04-26T19:31:43.151Z,42.30
2019-04-26T19:34:18.344Z,42.40
2019-04-26T19:36:56.353Z,43.00
2019-04-26T19:39:35.065Z,42.40
2019-04-26T19:42:07.602Z,42.50
2019-04-26T19:44:43.266Z,42.50
2019-04-26T19:47:56.065Z,42.30
2019-04-26T19:50:48.749Z,42.40
2019-04-26T19:53:27.089Z,42.30
2019-04-26T19:56:24.589Z,42.40
2019-04-26T19:58:57.597Z,42.40
2019-04-26T20:01:33.141Z,42.40
2019-04-26T20:04:08.312Z,42.50
2019-04-26T20:06:43.781Z,42.50
2019-04-26T20:09:22.767Z,42.40
2019-04-26T20:11:57.977Z,42.40
2019-04-26T20:14:45.058Z,42.50
2019-04-26T20:17:13.230Z,42.60
2019-04-26T20:19:47.655Z,42.70
2019-04-26T20:22:28.295Z,42.60
2019-04-26T20:25:02.341Z,42.70
2019-04-26T20:27:37.842Z,42.50
2019-04-26T20:30:24.440Z,42.40
2019-04-26T20:32:56.353Z,42.50
2019-04-26T20:35:32.977Z,42.50
2019-04-26T20:38:08.895Z,42.60
2019-04-26T20:40:47.501Z,42.60
2019-04-26T20:44:09.305Z,42.50
2019-04-26T20:46:39.924Z,42.60
2019-04-26T20:49:15.153Z,42.70
2019-04-26T20:51:51.940Z,42.80
2019-04-26T20:54:27.190Z,42.70
2019-04-26T20:57:02.515Z,42.70
2019-04-26T20:59:38.145Z,42.70
2019-04-26T21:02:16.183Z,42.90
2019-04-26T21:04:51.525Z,43.10
2019-04-26T21:07:27.299Z,42.90
2019-04-26T21:10:02.609Z,42.90
2019-04-26T21:12:38.258Z,43.40
2019-04-26T21:15:15.781Z,42.90
2019-04-26T21:17:51.887Z,43.00
2019-04-26T21:20:27.610Z,43.00
2019-04-26T21:23:04.211Z,42.90
2019-04-26T21:25:46.493Z,43.00
2019-04-26T21:28:33.203Z,43.10
2019-04-26T21:31:20.184Z,43.10
2019-04-26T21:34:01.380Z,43.10
2019-04-26T21:36:48.859Z,43.10
2019-04-26T21:39:29.165Z,43.10
2019-04-26T21:42:04.505Z,43.20
2019-04-26T21:44:39.660Z,43.20
2019-04-26T21:47:14.873Z,43.20
2019-04-26T21:49:53.993Z,43.20
2019-04-26T21:52:29.254Z,43.30
2019-04-26T21:55:04.627Z,43.20
2019-04-26T21:57:40.761Z,43.20
2019-04-26T22:00:38.660Z,43.30
2019-04-26T22:03:16.075Z,43.20
2019-04-26T22:05:50.879Z,43.20
2019-04-26T22:08:29.361Z,43.20
2019-04-26T22:11:04.804Z,43.20
2019-04-26T22:13:55.935Z,43.20
2019-04-26T22:16:49.171Z,43.40
2019-04-26T22:19:46.465Z,43.30
2019-04-26T22:22:26.219Z,43.40
2019-04-26T22:25:03.659Z,43.30
2019-04-26T22:27:38.569Z,43.30
2019-04-26T22:30:22.704Z,43.30
2019-04-26T22:32:58.397Z,43.40
2019-04-26T22:35:32.836Z,43.50
2019-04-26T22:38:08.147Z,43.40
2019-04-26T22:40:43.738Z,43.40
2019-04-26T22:43:41.096Z,43.40
2019-04-26T22:46:29.876Z,43.30
2019-04-26T22:49:05.741Z,43.30
2019-04-26T22:51:43.608Z,43.30
2019-04-26T22:54:19.023Z,43.30
2019-04-26T22:56:54.489Z,43.40
2019-04-26T22:59:29.645Z,43.30
2019-04-26T23:02:06.586Z,43.20
2019-04-26T23:04:42.131Z,43.40
2019-04-26T23:07:22.404Z,43.40
2019-04-26T23:09:55.562Z,43.40
2019-04-26T23:12:57.927Z,43.30
2019-04-26T23:16:11.479Z,43.40
2019-04-26T23:19:00.281Z,43.30
2019-04-26T23:21:38.581Z,43.20
2019-04-26T23:24:17.553Z,43.30
2019-04-26T23:26:50.813Z,43.20
2019-04-26T23:29:26.162Z,43.20
2019-04-26T23:32:03.488Z,43.30
2019-04-26T23:34:38.306Z,43.40
2019-04-26T23:37:13.594Z,43.70
2019-04-26T23:39:49.789Z,43.40
2019-04-26T23:42:26.086Z,43.30
2019-04-26T23:45:03.102Z,43.40
2019-04-26T23:47:39.038Z,43.40
2019-04-26T23:50:14.463Z,43.30
2019-04-26T23:52:50.419Z,43.40
2019-04-26T23:55:25.606Z,43.70
2019-04-26T23:58:06.470Z,43.60
